Time;durP1;ratioP1;P1;durP2;ratioP2;P2;SDS_P1;SDS_P2;PMS_P1;PMS_P2;Temp;Humidity;BMP_temperature;BMP_pressure;BME280_temperature;BME280_humidity;BME280_pressure;Samples;Min_cycle;Max_cycle;Signal;HPM_P1;HPM_P2
2023/10/11 00:00:33;;;;;;;7.80;4.47;;;;;;;16.67;76.22;100639.91;5075040;28;20488;-77
2023/10/11 00:03:14;;;;;;;;;;;;;;;16.70;76.19;100642.41;5070937;28;20055;-77
2023/10/11 00:05:43;;;;;;;7.32;4.05;;;;;;;16.73;75.62;100635.31;5080384;28;20453;-81
2023/10/11 00:08:16;;;;;;;9.00;3.65;;;;;;;16.79;74.97;100638.59;5079535;28;20134;-76
2023/10/11 00:10:53;;;;;;;10.32;3.83;;;;;;;16.80;74.99;100635.00;5063226;28;20147;-79
2023/10/11 00:13:22;;;;;;;7.30;4.22;;;;;;;16.74;74.88;100635.25;5077049;28;20055;-80
2023/10/11 00:15:53;;;;;;;6.80;2.92;;;;;;;16.79;74.80;100630.66;5077349;28;20094;-77
2023/10/11 00:18:30;;;;;;;6.50;3.53;;;;;;;16.80;74.40;100626.22;5072661;28;20147;-80
2023/10/11 00:20:59;;;;;;;10.20;3.90;;;;;;;16.75;74.53;100630.81;5077489;28;20039;-77
2023/10/11 00:23:28;;;;;;;6.50;3.80;;;;;;;16.73;74.62;100620.31;5062854;28;20131;-77
2023/10/11 00:26:00;;;;;;;10.70;4.25;;;;;;;16.70;74.37;100621.28;5077716;28;20048;-79
2023/10/11 00:28:27;;;;;;;5.32;3.63;;;;;;;16.76;74.17;100621.97;5077589;28;20130;-77
2023/10/11 00:30:58;;;;;;;6.00;3.65;;;;;;;16.76;73.98;100609.59;5069786;28;20564;-80
2023/10/11 00:33:25;;;;;;;4.55;3.08;;;;;;;16.70;74.52;100609.84;5045854;28;20453;-77
2023/10/11 00:35:52;;;;;;;12.18;4.00;;;;;;;16.72;74.17;100609.78;5072252;28;20040;-80
2023/10/11 00:38:27;;;;;;;8.15;4.13;;;;;;;16.75;73.79;100607.03;5079261;28;20047;-78
2023/10/11 00:41:07;;;;;;;6.18;3.45;;;;;;;16.74;73.77;100595.59;5078247;28;20036;-78
2023/10/11 00:43:38;;;;;;;6.75;4.40;;;;;;;16.72;73.84;100600.06;5060783;28;20044;-80
2023/10/11 00:46:08;;;;;;;11.60;5.68;;;;;;;16.73;73.82;100593.88;5077100;28;20039;-78
2023/10/11 00:48:37;;;;;;;7.53;5.05;;;;;;;16.67;74.20;100592.31;5080683;28;20135;-79
2023/10/11 00:51:07;;;;;;;6.82;4.93;;;;;;;16.65;74.50;100594.13;5077585;28;20075;-77
2023/10/11 00:53:35;;;;;;;7.07;4.03;;;;;;;16.62;74.56;100590.72;5079784;28;20044;-78
2023/10/11 00:56:05;;;;;;;6.00;3.40;;;;;;;16.72;73.64;100592.13;5076833;28;20051;-78
2023/10/11 00:58:33;;;;;;;8.35;3.65;;;;;;;16.66;74.29;100587.94;5077110;28;20040;-81
2023/10/11 01:01:03;;;;;;;9.00;4.10;;;;;;;16.63;74.30;100589.81;5081481;28;20043;-79
2023/10/11 01:03:33;;;;;;;7.75;3.00;;;;;;;16.61;74.47;100587.25;5090985;28;20059;-81
2023/10/11 01:06:00;;;;;;;5.82;3.90;;;;;;;16.57;74.79;100590.91;5077507;28;20078;-78
2023/10/11 01:08:38;;;;;;;7.35;3.35;;;;;;;16.51;74.81;100591.97;5057661;28;20083;-80
2023/10/11 01:11:08;;;;;;;7.43;3.97;;;;;;;16.50;75.06;100589.38;5074468;28;20652;-78
2023/10/11 01:13:35;;;;;;;6.47;4.30;;;;;;;16.46;75.06;100593.06;5081224;28;20123;-78
2023/10/11 01:16:05;;;;;;;7.72;3.50;;;;;;;16.44;75.23;100594.88;5061479;28;20048;-80
2023/10/11 01:18:33;;;;;;;6.05;3.90;;;;;;;16.38;75.70;100586.25;5078451;28;20050;-80
2023/10/11 01:21:04;;;;;;;7.40;4.10;;;;;;;16.39;75.26;100581.84;5078066;28;20111;-76
2023/10/11 01:23:34;;;;;;;5.30;3.53;;;;;;;16.54;74.62;100586.59;5077606;28;20281;-77
2023/10/11 01:26:07;;;;;;;12.68;4.20;;;;;;;16.62;74.04;100588.09;5068862;28;20102;-78
2023/10/11 01:28:38;;;;;;;9.33;3.70;;;;;;;16.59;74.27;100582.94;5078871;28;20032;-79
2023/10/11 01:31:09;;;;;;;6.25;3.13;;;;;;;16.52;73.92;100575.19;5091351;28;20770;-79
2023/10/11 01:33:40;;;;;;;7.72;3.75;;;;;;;16.53;74.31;100574.28;5077996;28;20051;-79
2023/10/11 01:36:09;;;;;;;4.78;3.10;;;;;;;16.51;73.47;100568.19;5088054;28;20047;-77
2023/10/11 01:38:47;;;;;;;5.43;2.85;;;;;;;16.81;71.29;100565.38;5079955;28;20051;-76
2023/10/11 01:41:16;;;;;;;8.45;3.53;;;;;;;16.98;70.49;100563.94;5081836;28;20032;-78
2023/10/11 01:43:46;;;;;;;5.30;2.90;;;;;;;17.06;69.18;100561.84;5073937;28;20504;-81
2023/10/11 01:46:24;;;;;;;6.53;3.78;;;;;;;17.15;68.54;100555.34;5074013;28;20072;-77
2023/10/11 01:48:52;;;;;;;6.88;3.30;;;;;;;17.33;67.80;100553.78;5076956;28;20051;-78
2023/10/11 01:51:26;;;;;;;6.18;3.80;;;;;;;17.43;67.21;100549.88;5081777;28;20601;-77
2023/10/11 01:54:00;;;;;;;6.63;3.42;;;;;;;17.52;66.05;100553.91;5078379;28;20051;-78
2023/10/11 01:56:28;;;;;;;4.63;3.17;;;;;;;17.63;66.21;100558.81;5080463;28;20062;-79
2023/10/11 01:58:56;;;;;;;6.95;3.72;;;;;;;17.62;66.24;100550.00;5079792;28;20056;-78
2023/10/11 02:01:38;;;;;;;7.55;3.72;;;;;;;17.66;65.24;100548.09;5075551;28;20072;-78
2023/10/11 02:04:10;;;;;;;7.00;2.97;;;;;;;17.65;65.14;100557.81;5079454;28;20119;-78
2023/10/11 02:06:40;;;;;;;5.13;3.55;;;;;;;17.66;65.46;100543.66;5078301;28;20051;-79
2023/10/11 02:09:11;;;;;;;7.72;3.55;;;;;;;17.76;65.29;100544.16;5075232;28;20074;-78
2023/10/11 02:11:41;;;;;;;6.47;3.50;;;;;;;17.75;64.46;100550.34;5063330;28;20528;-78
2023/10/11 02:14:09;;;;;;;6.05;3.47;;;;;;;17.78;64.52;100550.25;5077182;28;20042;-78
2023/10/11 02:16:36;;;;;;;7.57;3.22;;;;;;;17.77;64.33;100547.63;5060889;28;20051;-78
2023/10/11 02:19:05;;;;;;;4.65;3.10;;;;;;;17.81;64.08;100544.81;5080270;28;20145;-77
2023/10/11 02:21:31;;;;;;;3.17;2.58;;;;;;;17.86;64.02;100556.09;5081656;28;20039;-78
2023/10/11 02:23:59;;;;;;;4.53;3.63;;;;;;;17.95;63.60;100556.66;5080451;28;20040;-77
2023/10/11 02:26:31;;;;;;;8.70;3.38;;;;;;;17.98;62.57;100554.75;5079688;28;20048;-80
2023/10/11 02:29:00;;;;;;;9.77;3.55;;;;;;;18.03;62.33;100549.28;5092633;27;20122;-76
2023/10/11 02:31:31;;;;;;;6.10;3.22;;;;;;;18.01;63.17;100545.81;5086154;28;20650;-77
2023/10/11 02:34:06;;;;;;;7.57;3.38;;;;;;;18.09;61.76;100550.78;5096541;27;20036;-80
2023/10/11 02:36:35;;;;;;;5.90;3.08;;;;;;;18.13;61.81;100547.09;5065964;28;20085;-78
2023/10/11 02:39:05;;;;;;;6.45;3.03;;;;;;;18.17;61.52;100538.97;5076212;28;20051;-78
2023/10/11 02:41:37;;;;;;;5.07;3.30;;;;;;;18.22;61.44;100541.38;5076596;28;20435;-79
2023/10/11 02:44:04;;;;;;;9.15;3.42;;;;;;;18.15;61.66;100540.78;5059280;28;20040;-78
2023/10/11 02:46:33;;;;;;;7.95;3.45;;;;;;;18.17;61.30;100544.25;5094479;28;20048;-77
2023/10/11 02:49:05;;;;;;;9.98;3.92;;;;;;;18.22;61.29;100538.75;5079810;28;20044;-79
2023/10/11 02:51:35;;;;;;;10.18;4.97;;;;;;;18.21;61.31;100533.50;5084477;28;20059;-78
2023/10/11 02:54:04;;;;;;;5.43;3.05;;;;;;;18.24;60.90;100543.97;5077443;28;20059;-79
2023/10/11 02:56:46;;;;;;;5.47;3.72;;;;;;;18.29;60.99;100531.38;5074928;28;20041;-80
2023/10/11 02:59:19;;;;;;;10.52;3.92;;;;;;;18.31;60.70;100534.84;5077655;28;20225;-77
2023/10/11 03:02:00;;;;;;;5.23;3.27;;;;;;;18.31;60.47;100532.19;5075648;28;20028;-77
2023/10/11 03:04:34;;;;;;;5.53;3.58;;;;;;;18.34;60.29;100535.59;5080966;28;20044;-77
2023/10/11 03:07:01;;;;;;;4.43;3.55;;;;;;;18.36;60.87;100532.84;5089752;28;20047;-77
2023/10/11 03:09:33;;;;;;;7.03;3.38;;;;;;;18.32;60.47;100525.97;5077831;28;20427;-78
2023/10/11 03:12:05;;;;;;;7.68;3.55;;;;;;;18.29;60.65;100534.03;5092991;28;20093;-79
2023/10/11 03:14:40;;;;;;;9.27;3.70;;;;;;;18.31;60.42;100532.19;5079747;28;20036;-79
2023/10/11 03:17:13;;;;;;;7.32;3.40;;;;;;;18.37;60.48;100521.34;5073016;28;20304;-78
2023/10/11 03:19:42;;;;;;;5.28;3.42;;;;;;;18.39;59.95;100524.75;5063020;28;20032;-79
2023/10/11 03:22:20;;;;;;;9.75;4.20;;;;;;;18.37;60.22;100520.47;5074938;28;20041;-79
2023/10/11 03:24:59;;;;;;;4.75;2.90;;;;;;;18.35;60.13;100512.59;5079106;28;20060;-78
2023/10/11 03:27:27;;;;;;;6.07;3.47;;;;;;;18.37;60.17;100521.34;5071146;28;20054;-78
2023/10/11 03:29:55;;;;;;;6.00;3.50;;;;;;;18.36;59.75;100509.00;5063809;28;20040;-79
2023/10/11 03:32:25;;;;;;;4.32;3.33;;;;;;;18.40;59.84;100507.09;5080449;28;20075;-77
2023/10/11 03:34:51;;;;;;;5.53;3.17;;;;;;;18.41;60.03;100508.78;5078516;28;20055;-79
2023/10/11 03:37:18;;;;;;;6.40;3.28;;;;;;;18.38;60.13;100517.72;5078083;28;20682;-78
2023/10/11 03:39:55;;;;;;;4.57;3.22;;;;;;;18.37;60.23;100501.91;5078193;28;20045;-78
2023/10/11 03:42:27;;;;;;;6.47;3.70;;;;;;;18.37;60.12;100505.44;5078812;28;20076;-79
2023/10/11 03:44:54;;;;;;;5.05;3.00;;;;;;;18.33;60.44;100499.41;5075911;28;20109;-80
2023/10/11 03:47:24;;;;;;;7.90;3.30;;;;;;;18.35;60.15;100496.69;5076042;28;20049;-78
2023/10/11 03:49:54;;;;;;;6.68;3.80;;;;;;;18.38;59.76;100499.19;5078279;28;20114;-78
2023/10/11 03:52:22;;;;;;;3.92;2.90;;;;;;;18.31;60.17;100497.75;5069076;28;20043;-78
2023/10/11 03:55:00;;;;;;;8.00;4.45;;;;;;;18.27;59.93;100493.50;5074955;28;20040;-78
2023/10/11 03:57:35;;;;;;;5.22;3.20;;;;;;;18.29;59.79;100489.88;5078760;28;20044;-79
2023/10/11 04:00:16;;;;;;;8.65;3.50;;;;;;;18.25;60.05;100500.66;5060763;28;20044;-78
2023/10/11 04:02:43;;;;;;;10.73;3.45;;;;;;;18.22;59.99;100485.75;5069662;28;20125;-78
2023/10/11 04:05:10;;;;;;;9.07;4.00;;;;;;;18.19;60.54;100485.91;5076793;28;20089;-78
2023/10/11 04:07:36;;;;;;;6.63;3.33;;;;;;;18.22;60.37;100490.19;5077607;28;20047;-81
2023/10/11 04:10:09;;;;;;;5.40;2.72;;;;;;;18.23;59.97;100484.84;5076178;28;20058;-78
2023/10/11 04:12:42;;;;;;;8.38;3.65;;;;;;;18.22;59.77;100482.25;5074126;28;20040;-76
2023/10/11 04:15:19;;;;;;;7.15;2.88;;;;;;;18.25;59.73;100477.69;5089164;28;20123;-79
2023/10/11 04:17:49;;;;;;;4.95;2.80;;;;;;;18.27;59.52;100481.13;5078906;28;20712;-79
2023/10/11 04:20:18;;;;;;;5.93;3.75;;;;;;;18.33;59.20;100483.50;5057372;28;20051;-81
2023/10/11 04:22:51;;;;;;;6.75;3.72;;;;;;;18.35;59.13;100480.78;5058835;28;20041;-81
2023/10/11 04:25:22;;;;;;;6.15;3.40;;;;;;;18.37;58.97;100480.69;5062570;28;20057;-81
2023/10/11 04:27:55;;;;;;;6.43;3.08;;;;;;;18.31;59.10;100484.50;5076671;28;20498;-77
2023/10/11 04:30:26;;;;;;;6.78;3.25;;;;;;;18.27;59.54;100480.28;5072579;28;20040;-77
2023/10/11 04:32:57;;;;;;;8.95;2.80;;;;;;;18.29;59.21;100478.38;5075926;28;20408;-78
2023/10/11 04:35:25;;;;;;;7.80;3.20;;;;;;;18.33;58.80;100478.22;5076019;28;20043;-79
2023/10/11 04:37:55;;;;;;;7.47;3.42;;;;;;;18.28;58.77;100474.91;5077577;28;20059;-79
2023/10/11 04:40:35;;;;;;;12.38;4.00;;;;;;;18.27;58.99;100474.97;5076123;28;20046;-79
2023/10/11 04:43:25;;;;;;;7.25;3.35;;;;;;;18.37;59.12;100473.63;5089322;28;20051;-79
2023/10/11 04:45:55;;;;;;;6.53;2.83;;;;;;;18.28;59.23;100471.41;5076118;28;20050;-78
2023/10/11 04:48:36;;;;;;;6.07;3.08;;;;;;;18.23;59.54;100479.53;5071473;28;20672;-78
2023/10/11 04:51:07;;;;;;;7.05;3.75;;;;;;;18.21;59.80;100468.13;5073363;28;20239;-78
2023/10/11 04:53:37;;;;;;;6.22;3.10;;;;;;;18.22;59.76;100463.72;5074264;28;20121;-78
2023/10/11 04:56:51;;;;;;;10.48;3.83;;;;;;;18.19;59.98;100464.69;5072593;28;20182;-79
2023/10/11 04:58:59;;;;;;;12.93;5.37;;;;;;;18.16;60.24;100465.69;5079891;28;20119;-78
2023/10/11 05:01:40;;;;;;;5.20;3.67;;;;;;;18.17;60.26;100458.59;5075686;28;20040;-79
2023/10/11 05:04:12;;;;;;;6.78;4.05;;;;;;;18.16;60.98;100462.16;5077551;28;20036;-78
2023/10/11 05:06:41;;;;;;;6.40;3.40;;;;;;;18.13;60.85;100457.00;5072992;28;20071;-81
2023/10/11 05:09:15;;;;;;;7.47;3.70;;;;;;;18.12;61.29;100456.16;5077916;28;20135;-79
2023/10/11 05:11:44;;;;;;;9.75;3.53;;;;;;;18.11;61.38;100449.13;5079238;28;20044;-79
2023/10/11 05:14:30;;;;;;;10.45;4.10;;;;;;;18.09;61.85;100453.63;5061535;28;20161;-82
2023/10/11 05:17:16;;;;;;;8.38;3.67;;;;;;;18.06;62.01;100445.84;5072157;28;20043;-82
2023/10/11 05:19:56;;;;;;;6.50;3.20;;;;;;;18.00;62.14;100446.09;5080015;28;20040;-78
2023/10/11 05:22:29;;;;;;;5.18;3.83;;;;;;;17.96;62.52;100448.00;5078969;28;20035;-77
2023/10/11 05:25:37;;;;;;;6.43;3.15;;;;;;;17.94;62.89;100451.63;5081379;28;20044;-80
2023/10/11 05:28:07;;;;;;;11.10;4.82;;;;;;;17.96;62.95;100436.56;5077874;28;20036;-78
2023/10/11 05:30:44;;;;;;;7.43;3.85;;;;;;;17.99;62.68;100442.59;5078198;28;20039;-79
2023/10/11 05:33:31;;;;;;;10.02;3.50;;;;;;;18.00;62.86;100431.09;5091312;28;20042;-81
2023/10/11 05:52:37;;;;;;;9.30;3.78;;;;;;;18.07;62.58;100436.97;5071406;28;20036;-83
2023/10/11 05:55:06;;;;;;;6.50;4.00;;;;;;;18.09;62.63;100437.75;5039321;28;20068;-81
2023/10/11 05:57:33;;;;;;;8.35;3.85;;;;;;;18.09;62.47;100426.28;5045753;28;20040;-82
2023/10/11 06:00:10;;;;;;;7.25;4.40;;;;;;;18.12;62.41;100432.31;5077632;28;20492;-77
2023/10/11 06:02:38;;;;;;;4.63;3.47;;;;;;;18.07;62.52;100434.31;5094145;28;20043;-78
2023/10/11 06:05:10;;;;;;;11.18;3.90;;;;;;;18.08;62.13;100430.75;5077152;28;20531;-78
2023/10/11 06:07:40;;;;;;;8.30;3.40;;;;;;;18.09;62.38;100434.25;5060458;28;20473;-79
2023/10/11 06:10:13;;;;;;;7.45;4.63;;;;;;;18.06;62.48;100435.25;5098727;27;20051;-78
2023/10/11 06:12:40;;;;;;;10.32;4.00;;;;;;;18.10;62.21;100438.63;5089826;28;20058;-79
2023/10/11 06:15:19;;;;;;;7.28;3.42;;;;;;;18.07;62.69;100442.25;5086779;28;20032;-79
2023/10/11 06:17:49;;;;;;;10.00;4.05;;;;;;;18.02;62.67;100441.59;5088858;28;20488;-78
2023/10/11 06:20:26;;;;;;;8.45;3.03;;;;;;;18.07;62.69;100439.63;5088829;28;20040;-79
2023/10/11 06:23:02;;;;;;;7.97;3.47;;;;;;;18.07;62.56;100444.91;5088457;28;20036;-80
2023/10/11 06:25:49;;;;;;;5.88;3.65;;;;;;;18.05;62.92;100438.81;5088545;28;20063;-79
2023/10/11 06:28:15;;;;;;;12.85;3.95;;;;;;;18.09;62.43;100431.59;5087865;28;20111;-78
2023/10/11 06:30:47;;;;;;;9.52;4.13;;;;;;;18.08;62.49;100427.22;5077106;28;20062;-77
2023/10/11 06:33:14;;;;;;;9.20;3.90;;;;;;;18.13;62.17;100434.06;5084304;28;20068;-79
2023/10/11 06:35:46;;;;;;;8.00;3.00;;;;;;;18.18;62.04;100437.34;5090676;28;20055;-77
2023/10/11 06:38:13;;;;;;;7.53;3.67;;;;;;;18.24;61.79;100440.63;5085740;28;20055;-80
2023/10/11 06:40:39;;;;;;;6.47;3.63;;;;;;;18.30;61.84;100440.38;5090772;28;20037;-79
2023/10/11 06:43:16;;;;;;;7.07;4.10;;;;;;;18.28;61.76;100431.66;5097299;28;20046;-79
2023/10/11 06:45:42;;;;;;;6.90;4.18;;;;;;;18.29;61.61;100444.81;5094292;28;20044;-77
2023/10/11 06:48:16;;;;;;;7.53;3.90;;;;;;;18.33;61.96;100450.84;5084472;28;20044;-78
2023/10/11 06:50:46;;;;;;;10.38;3.65;;;;;;;18.40;61.44;100456.75;5062824;28;20052;-81
2023/10/11 06:53:13;;;;;;;8.52;3.60;;;;;;;18.67;60.66;100460.78;5080258;28;20089;-77
2023/10/11 06:55:40;;;;;;;9.98;3.33;;;;;;;19.41;58.29;100456.47;5075964;28;20055;-77
2023/10/11 06:58:15;;;;;;;10.70;4.28;;;;;;;19.61;57.64;100459.94;5062809;28;20039;-78
2023/10/11 07:00:46;;;;;;;8.23;3.92;;;;;;;20.20;55.71;100452.50;5073924;28;20052;-78
2023/10/11 07:03:27;;;;;;;6.68;3.85;;;;;;;20.22;55.08;100455.09;5088647;28;21296;-79
2023/10/11 07:06:00;;;;;;;8.30;4.07;;;;;;;19.90;56.04;100460.28;5068581;28;20059;-79
2023/10/11 07:08:32;;;;;;;6.97;3.23;;;;;;;19.95;56.25;100447.63;5074749;28;20051;-77
2023/10/11 07:11:10;;;;;;;4.40;3.53;;;;;;;19.43;56.71;100448.44;5077253;28;20338;-79
2023/10/11 07:13:54;;;;;;;10.98;5.28;;;;;;;19.33;56.95;100448.88;5078066;28;20047;-77
2023/10/11 07:16:22;;;;;;;;;;;;;;;19.20;57.49;100452.19;5073134;28;20094;-79
2023/10/11 07:18:54;;;;;;;10.27;3.55;;;;;;;19.15;57.81;100445.31;5077867;28;19955;-80
2023/10/11 07:21:26;;;;;;;6.40;3.70;;;;;;;19.45;57.20;100459.81;5076546;28;20060;-79
2023/10/11 07:23:56;;;;;;;4.10;2.72;;;;;;;19.30;57.53;100456.97;5073595;28;20210;-80
2023/10/11 07:29:08;;;;;;;6.25;3.60;;;;;;;20.13;55.18;100480.38;5073367;28;20063;-79
2023/10/11 07:31:38;;;;;;;7.43;3.38;;;;;;;20.07;54.86;100486.00;5078699;28;20502;-78
2023/10/11 07:34:06;;;;;;;5.88;3.00;;;;;;;20.03;55.44;100479.13;5079662;28;20036;-77
2023/10/11 07:36:38;;;;;;;4.72;3.10;;;;;;;19.56;56.01;100488.50;5079565;28;20055;-79
2023/10/11 07:39:15;;;;;;;9.52;3.33;;;;;;;19.26;56.71;100484.59;5074007;27;20097;-78
2023/10/11 07:41:43;;;;;;;6.40;3.22;;;;;;;19.08;56.68;100473.06;5067630;28;20044;-78
2023/10/11 07:44:12;;;;;;;6.97;3.35;;;;;;;19.16;56.92;100481.53;5082490;28;20051;-77
2023/10/11 07:46:39;;;;;;;8.63;3.05;;;;;;;19.23;56.74;100478.56;5077899;28;20046;-78
2023/10/11 07:49:14;;;;;;;8.70;3.95;;;;;;;19.38;56.21;100490.25;5076752;27;20048;-79
2023/10/11 07:51:41;;;;;;;5.95;3.50;;;;;;;19.48;55.84;100486.22;5079400;28;20475;-77
2023/10/11 07:54:19;;;;;;;7.25;3.35;;;;;;;19.62;55.56;100478.44;5075352;27;20066;-80
2023/10/11 07:56:52;;;;;;;11.27;3.65;;;;;;;19.65;54.82;100472.97;5093839;28;20142;-78
2023/10/11 07:59:23;;;;;;;3.67;2.88;;;;;;;19.70;54.40;100474.53;5078944;28;20119;-80
2023/10/11 08:01:53;;;;;;;6.35;3.22;;;;;;;19.79;54.29;100480.25;5078764;28;20677;-80
2023/10/11 08:04:22;;;;;;;3.63;2.88;;;;;;;19.88;53.66;100476.31;5077642;28;20039;-77
2023/10/11 08:06:59;;;;;;;4.53;3.10;;;;;;;19.97;53.55;100474.97;5077299;28;20040;-78
2023/10/11 08:09:28;;;;;;;4.70;2.95;;;;;;;20.00;53.76;100473.00;5080691;28;20043;-78
2023/10/11 08:11:57;;;;;;;7.57;3.05;;;;;;;19.91;53.50;100464.66;5082110;28;20100;-80
2023/10/11 08:14:29;;;;;;;4.80;2.90;;;;;;;19.97;53.58;100477.63;5080422;28;20572;-78
2023/10/11 08:16:59;;;;;;;6.15;2.83;;;;;;;20.05;53.51;100462.16;5078547;28;20027;-80
2023/10/11 08:19:26;;;;;;;8.48;3.25;;;;;;;20.00;53.21;100456.22;5060457;28;20044;-79
2023/10/11 08:21:57;;;;;;;5.75;3.15;;;;;;;20.12;53.22;100466.19;5064088;28;20044;-79
2023/10/11 08:24:27;;;;;;;8.50;2.90;;;;;;;20.09;53.10;100455.75;5093845;27;20639;-78
2023/10/11 08:27:05;;;;;;;10.45;3.88;;;;;;;20.28;53.09;100454.78;5088293;28;20052;-81
2023/10/11 08:29:33;;;;;;;5.28;3.28;;;;;;;20.36;52.83;100452.56;5085675;28;20040;-80
2023/10/11 08:32:06;;;;;;;6.53;3.67;;;;;;;20.35;52.38;100456.19;5085916;28;20048;-78
2023/10/11 08:34:38;;;;;;;7.43;2.78;;;;;;;20.50;52.70;100455.34;5082328;28;20044;-77
2023/10/11 08:37:07;;;;;;;4.90;3.00;;;;;;;20.48;52.41;100441.28;5082470;28;20040;-82
2023/10/11 08:39:44;;;;;;;10.05;3.33;;;;;;;20.47;52.14;100446.69;5095374;27;20724;-77
2023/10/11 08:42:14;;;;;;;10.23;2.83;;;;;;;20.65;51.73;100445.69;5066461;28;20460;-78
2023/10/11 08:44:44;;;;;;;7.50;3.63;;;;;;;20.65;52.56;100440.38;5090059;28;20093;-77
2023/10/11 08:47:16;;;;;;;7.05;2.90;;;;;;;20.56;52.34;100447.97;5071212;28;20043;-81
2023/10/11 08:49:48;;;;;;;6.68;2.50;;;;;;;20.62;52.38;100461.81;5080632;28;20522;-77
2023/10/11 08:52:24;;;;;;;8.77;3.40;;;;;;;20.47;52.72;100455.50;5061094;28;20797;-77
2023/10/11 08:54:52;;;;;;;5.30;2.50;;;;;;;20.49;53.12;100468.72;5076933;28;20047;-80
2023/10/11 08:57:31;;;;;;;7.57;4.05;;;;;;;20.47;52.76;100462.63;5091550;28;20036;-82
2023/10/11 08:59:59;;;;;;;7.53;3.55;;;;;;;20.51;52.62;100466.84;5074450;28;20610;-77
2023/10/11 09:02:26;;;;;;;11.98;3.88;;;;;;;20.55;53.03;100472.88;5091373;28;21104;-82
2023/10/11 09:05:28;;;;;;;8.30;3.17;;;;;;;20.59;52.96;100469.94;5064798;28;20062;-80
2023/10/11 09:07:55;;;;;;;7.97;3.03;;;;;;;20.62;53.10;100471.56;5063074;28;20035;-78
2023/10/11 09:10:24;;;;;;;3.80;2.60;;;;;;;20.72;52.97;100470.19;5062069;28;20247;-76
2023/10/11 09:12:56;;;;;;;15.10;3.67;;;;;;;20.70;52.89;100473.84;5091693;28;20123;-80
2023/10/11 09:15:42;;;;;;;5.10;2.92;;;;;;;20.80;52.96;100459.13;5076301;28;20117;-79
2023/10/11 09:18:19;;;;;;;8.15;3.65;;;;;;;20.90;52.97;100460.31;5060176;28;20475;-77
2023/10/11 09:20:55;;;;;;;10.25;3.63;;;;;;;20.85;53.15;100458.88;5089524;27;20039;-78
2023/10/11 09:23:39;;;;;;;7.32;4.70;;;;;;;20.90;52.64;100456.78;5056033;28;20055;-80
2023/10/11 09:26:13;;;;;;;10.05;2.95;;;;;;;20.92;53.06;100470.88;5091068;28;20051;-83
2023/10/11 09:28:41;;;;;;;;;;;;;;;20.99;52.77;100459.81;5080156;28;20154;-81
2023/10/11 09:31:15;;;;;;;8.98;3.60;;;;;;;21.00;52.89;100463.31;5077824;28;19928;-79
2023/10/11 09:33:50;;;;;;;;;;;;;;;21.13;52.75;100463.50;5083509;28;20144;-78
2023/10/11 09:36:20;;;;;;;11.45;3.33;;;;;;;21.12;52.75;100457.31;5078143;28;19920;-77
2023/10/11 09:38:54;;;;;;;7.57;3.47;;;;;;;21.13;53.25;100461.72;5073016;28;20043;-81
2023/10/11 09:41:38;;;;;;;10.00;3.25;;;;;;;20.96;52.99;100461.78;5075618;28;20757;-78
2023/10/11 09:44:07;;;;;;;6.47;3.75;;;;;;;20.95;53.59;100457.41;5082640;28;20147;-81
2023/10/11 09:46:35;;;;;;;9.82;3.47;;;;;;;20.95;53.65;100452.94;5079971;28;20035;-79
2023/10/11 09:49:12;;;;;;;4.50;2.80;;;;;;;20.96;53.96;100456.47;5059113;28;20059;-80
2023/10/11 09:51:41;;;;;;;8.13;3.15;;;;;;;20.94;54.17;100456.53;5084350;28;20131;-78
2023/10/11 09:54:12;;;;;;;7.25;3.20;;;;;;;20.89;53.73;100449.78;5089130;28;20135;-84
2023/10/11 09:56:51;;;;;;;6.18;3.15;;;;;;;20.93;53.78;100454.81;5077018;28;20055;-79
2023/10/11 09:59:43;;;;;;;11.32;4.40;;;;;;;21.06;53.41;100446.19;5081254;28;20112;-79
2023/10/11 10:02:35;;;;;;;6.80;3.40;;;;;;;21.14;53.39;100443.94;5059289;28;20502;-78
2023/10/11 10:05:05;;;;;;;8.10;3.53;;;;;;;21.20;53.30;100446.25;5079147;28;20050;-80
2023/10/11 10:07:46;;;;;;;9.05;3.50;;;;;;;21.28;53.28;100444.00;5084630;28;20092;-82
2023/10/11 10:10:25;;;;;;;9.13;4.25;;;;;;;21.51;52.75;100435.63;5069634;28;20044;-79
2023/10/11 10:13:00;;;;;;;12.90;3.75;;;;;;;21.66;52.66;100439.25;5071621;28;20071;-80
2023/10/11 10:15:36;;;;;;;6.55;4.68;;;;;;;21.65;52.42;100433.03;5090036;28;20044;-80
2023/10/11 10:18:12;;;;;;;5.53;3.60;;;;;;;21.76;52.30;100443.09;5077077;28;20055;-80
2023/10/11 10:20:44;;;;;;;8.55;3.28;;;;;;;21.91;51.95;100438.63;5092693;28;20067;-79
2023/10/11 10:23:16;;;;;;;7.03;3.20;;;;;;;21.98;51.70;100445.31;5076073;28;20101;-79
2023/10/11 10:25:46;;;;;;;7.63;3.45;;;;;;;22.17;50.92;100436.19;5089928;27;20043;-80
2023/10/11 10:28:34;;;;;;;4.57;3.13;;;;;;;22.19;50.36;100434.28;5077130;28;20044;-80
2023/10/11 10:31:21;;;;;;;6.85;3.28;;;;;;;22.06;50.60;100440.38;5091630;27;20121;-79
2023/10/11 10:34:13;;;;;;;7.70;3.15;;;;;;;22.21;50.92;100440.41;5081750;28;20044;-79
2023/10/11 10:36:40;;;;;;;8.70;4.00;;;;;;;22.40;50.19;100434.81;5069748;28;20051;-80
2023/10/11 10:39:36;;;;;;;5.57;3.40;;;;;;;22.55;50.38;100430.31;5092734;27;20537;-78
2023/10/11 10:42:15;;;;;;;7.15;3.40;;;;;;;22.65;49.73;100434.13;5098137;27;20048;-81
2023/10/11 10:44:59;;;;;;;9.85;4.10;;;;;;;22.88;49.49;100440.69;5062148;28;20075;-79
2023/10/11 10:47:28;;;;;;;9.90;4.00;;;;;;;23.04;48.86;100443.22;5088614;27;20120;-78
2023/10/11 10:50:07;;;;;;;9.80;3.97;;;;;;;23.16;48.56;100444.25;5075072;28;20048;-82
2023/10/11 10:52:34;;;;;;;6.07;3.45;;;;;;;23.40;47.86;100441.78;5092261;28;20065;-79
2023/10/11 10:55:07;;;;;;;5.47;3.72;;;;;;;23.54;47.89;100443.53;5076478;28;20047;-78
2023/10/11 10:57:37;;;;;;;14.60;3.95;;;;;;;23.47;47.03;100431.56;5075857;28;20059;-81
2023/10/11 11:00:20;;;;;;;10.25;3.38;;;;;;;23.67;46.73;100434.69;5074842;28;20047;-81
2023/10/11 11:02:46;;;;;;;8.98;3.78;;;;;;;23.81;45.95;100431.09;5093359;28;20043;-78
2023/10/11 11:05:15;;;;;;;9.23;3.72;;;;;;;23.66;46.35;100428.47;5078407;28;20115;-79
2023/10/11 11:07:47;;;;;;;11.73;4.18;;;;;;;23.57;47.19;100431.78;5080104;28;20134;-83
2023/10/11 11:10:22;;;;;;;9.55;3.70;;;;;;;23.17;47.58;100429.97;5077542;27;20129;-80
2023/10/11 11:12:48;;;;;;;8.85;3.40;;;;;;;23.12;48.23;100432.03;5072354;28;20222;-79
2023/10/11 11:15:20;;;;;;;7.05;3.03;;;;;;;23.08;48.39;100438.53;5078674;28;20050;-81
2023/10/11 11:17:51;;;;;;;10.65;3.45;;;;;;;22.90;48.97;100440.56;5087523;28;20066;-79
2023/10/11 11:20:30;;;;;;;13.30;4.47;;;;;;;23.09;48.65;100443.78;5103749;28;20036;-79
2023/10/11 11:22:56;;;;;;;8.25;3.42;;;;;;;23.10;48.09;100439.28;5073852;28;20031;-78
2023/10/11 11:25:27;;;;;;;15.45;3.60;;;;;;;23.09;48.16;100432.25;5083125;27;20168;-80
2023/10/11 11:28:15;;;;;;;12.68;4.22;;;;;;;23.00;48.31;100440.81;5074793;28;20096;-80
2023/10/11 11:30:53;;;;;;;9.90;4.03;;;;;;;23.09;48.23;100419.75;5087522;28;20059;-79
2023/10/11 11:33:28;;;;;;;7.18;4.03;;;;;;;23.29;48.00;100426.47;5097574;27;20487;-78
2023/10/11 11:35:55;;;;;;;11.60;3.95;;;;;;;23.36;48.14;100444.75;5075859;28;20317;-81
2023/10/11 11:38:29;;;;;;;13.88;3.65;;;;;;;24.44;46.03;100430.28;5078602;28;20643;-80
2023/10/11 11:41:03;;;;;;;10.23;3.50;;;;;;;24.97;44.90;100429.22;5081969;28;20479;-80
2023/10/11 11:43:33;;;;;;;13.88;3.92;;;;;;;25.28;44.46;100435.00;5082553;27;20040;-78
2023/10/11 11:46:01;;;;;;;13.75;3.80;;;;;;;24.98;45.34;100440.78;5093852;27;20135;-80
2023/10/11 11:48:28;;;;;;;9.45;3.75;;;;;;;25.03;45.29;100449.34;5076454;27;20039;-79
2023/10/11 11:50:56;;;;;;;9.10;3.35;;;;;;;25.27;44.98;100450.19;5080300;28;20049;-78
2023/10/11 11:53:21;;;;;;;12.38;3.38;;;;;;;25.46;44.93;100437.28;5089649;28;20051;-78
2023/10/11 11:55:49;;;;;;;13.48;4.10;;;;;;;25.89;44.24;100439.38;5083055;28;20039;-80
2023/10/11 11:58:16;;;;;;;11.68;4.05;;;;;;;25.36;45.15;100432.63;5073283;27;20097;-77
2023/10/11 12:01:04;;;;;;;7.82;3.53;;;;;;;25.75;44.59;100437.78;5080731;28;20138;-79
2023/10/11 12:03:36;;;;;;;10.07;3.38;;;;;;;25.63;44.90;100425.28;5085370;27;20047;-79
2023/10/11 12:06:11;;;;;;;10.13;3.45;;;;;;;25.61;44.61;100429.94;5097123;27;20047;-79
2023/10/11 12:08:57;;;;;;;7.97;3.40;;;;;;;26.07;44.28;100438.00;5074422;28;20046;-78